Time;durP1;ratioP1;P1;durP2;ratioP2;P2;SDS_P1;SDS_P2;PMS_P1;PMS_P2;Temp;Humidity;BMP_temperature;BMP_pressure;BME280_temperature;BME280_humidity;BME280_pressure;Samples;Min_cycle;Max_cycle;Signal;HPM_P1;HPM_P2
2023/05/12 00:00:40;;;;;;;45.50;29.83;;;12.60;99.90;;;;;;5088764;28;20112;-41
2023/05/12 00:03:06;;;;;;;46.05;31.55;;;12.60;99.90;;;;;;5089018;28;20134;-41
2023/05/12 00:05:32;;;;;;;39.97;29.10;;;12.60;99.90;;;;;;5089339;28;20027;-41
2023/05/12 00:07:57;;;;;;;47.45;31.73;;;12.60;99.90;;;;;;5087378;28;20016;-41
2023/05/12 00:10:25;;;;;;;45.80;32.38;;;12.60;99.90;;;;;;5089270;28;20016;-41
2023/05/12 00:12:51;;;;;;;46.88;31.17;;;12.60;99.90;;;;;;5087654;28;20032;-40
2023/05/12 00:15:18;;;;;;;44.40;29.77;;;12.60;99.90;;;;;;5088870;28;20024;-41
2023/05/12 00:17:44;;;;;;;36.30;27.38;;;12.60;99.90;;;;;;5089023;28;20020;-41
2023/05/12 00:20:10;;;;;;;47.28;31.75;;;12.60;99.90;;;;;;5089146;28;20039;-42
2023/05/12 00:22:36;;;;;;;38.13;28.02;;;12.60;99.90;;;;;;5088015;28;20020;-41
2023/05/12 00:25:01;;;;;;;47.42;31.40;;;12.60;99.90;;;;;;5088589;28;20031;-41
2023/05/12 00:27:28;;;;;;;40.78;28.83;;;12.60;99.90;;;;;;5088587;28;20035;-41
2023/05/12 00:29:53;;;;;;;39.65;27.92;;;12.60;99.90;;;;;;5088542;28;20023;-41
2023/05/12 00:32:19;;;;;;;42.17;29.55;;;12.60;99.90;;;;;;5088064;28;20382;-41
2023/05/12 00:34:44;;;;;;;47.45;31.83;;;12.60;99.90;;;;;;5087270;28;20038;-41
2023/05/12 00:37:10;;;;;;;54.05;34.58;;;12.60;99.90;;;;;;5086751;28;20062;-41
2023/05/12 00:39:36;;;;;;;49.80;33.25;;;12.60;99.90;;;;;;5085841;28;20040;-41
2023/05/12 00:42:02;;;;;;;44.97;31.98;;;12.60;99.90;;;;;;5086681;28;20103;-42
2023/05/12 00:44:28;;;;;;;58.78;36.42;;;12.60;99.90;;;;;;5086135;28;20161;-41
2023/05/12 00:46:54;;;;;;;46.92;33.13;;;12.60;99.90;;;;;;5084345;28;20036;-43
2023/05/12 00:49:20;;;;;;;54.97;36.88;;;12.60;99.90;;;;;;5067156;28;20052;-40
2023/05/12 00:51:45;;;;;;;49.40;34.00;;;12.50;99.90;;;;;;5066083;28;20537;-40
2023/05/12 00:54:11;;;;;;;46.35;32.22;;;12.60;99.90;;;;;;5067153;28;20115;-40
2023/05/12 00:56:40;;;;;;;43.53;30.02;;;12.50;99.90;;;;;;5066723;28;20091;-40
2023/05/12 00:59:06;;;;;;;46.33;31.33;;;12.50;99.90;;;;;;5066774;28;20023;-40
2023/05/12 01:01:33;;;;;;;44.47;31.42;;;12.50;99.90;;;;;;5069914;28;20502;-40
2023/05/12 01:03:59;;;;;;;46.70;31.20;;;12.50;99.90;;;;;;5070603;28;20029;-40
2023/05/12 01:06:31;;;;;;;40.00;30.52;;;12.50;99.90;;;;;;5066557;28;20420;-41
2023/05/12 01:08:58;;;;;;;40.63;29.60;;;12.40;99.90;;;;;;5066708;28;20019;-41
2023/05/12 01:11:23;;;;;;;52.88;33.88;;;12.40;99.90;;;;;;5066105;28;20043;-41
2023/05/12 01:13:49;;;;;;;44.55;32.28;;;12.40;99.90;;;;;;5066630;28;20032;-40
2023/05/12 01:16:18;;;;;;;48.42;33.75;;;12.40;99.90;;;;;;5066796;28;20351;-41
2023/05/12 01:18:51;;;;;;;39.17;29.98;;;12.40;99.90;;;;;;5067805;28;20036;-40
2023/05/12 01:21:18;;;;;;;42.17;30.17;;;12.40;99.90;;;;;;5075785;28;20075;-41
2023/05/12 01:23:49;;;;;;;53.05;33.85;;;12.30;99.90;;;;;;5074165;28;20021;-40
2023/05/12 01:26:15;;;;;;;44.38;32.10;;;12.30;99.90;;;;;;5080016;28;20242;-40
2023/05/12 01:28:41;;;;;;;45.33;31.02;;;12.30;99.90;;;;;;5090825;28;20063;-40
2023/05/12 01:31:07;;;;;;;41.25;30.15;;;12.30;99.90;;;;;;5091274;28;20012;-40
2023/05/12 01:33:34;;;;;;;40.85;28.38;;;12.30;99.90;;;;;;5084730;28;20038;-40
2023/05/12 01:35:59;;;;;;;38.20;27.63;;;12.30;99.90;;;;;;5069955;28;20035;-40
2023/05/12 01:38:25;;;;;;;35.88;26.90;;;12.20;99.90;;;;;;5073583;28;20268;-41
2023/05/12 01:40:51;;;;;;;38.90;27.85;;;12.20;99.90;;;;;;5080526;28;20495;-42
2023/05/12 01:43:16;;;;;;;36.35;26.83;;;12.20;99.90;;;;;;5079936;28;20032;-42
2023/05/12 01:45:42;;;;;;;46.25;30.88;;;12.20;99.90;;;;;;5079316;28;20055;-41
2023/05/12 01:48:07;;;;;;;41.20;29.08;;;12.10;99.90;;;;;;5094517;28;20028;-41
2023/05/12 01:50:33;;;;;;;40.70;27.92;;;12.10;99.90;;;;;;5096757;28;20024;-40
2023/05/12 01:52:58;;;;;;;37.08;27.05;;;12.10;99.90;;;;;;5099234;28;20038;-40
2023/05/12 01:55:24;;;;;;;38.92;27.42;;;12.10;99.90;;;;;;5093823;28;20305;-40
2023/05/12 01:57:50;;;;;;;38.00;28.13;;;12.10;99.90;;;;;;5090251;28;20032;-40
2023/05/12 02:00:15;;;;;;;39.83;28.75;;;12.10;99.90;;;;;;5091029;28;20024;-40
2023/05/12 02:02:44;;;;;;;41.90;28.90;;;12.10;99.90;;;;;;5090462;28;20028;-40
2023/05/12 02:05:10;;;;;;;35.53;26.98;;;12.10;99.90;;;;;;5091164;28;20461;-40
2023/05/12 02:07:35;;;;;;;46.67;31.05;;;12.10;99.90;;;;;;5090471;28;20020;-40
2023/05/12 02:10:01;;;;;;;43.85;30.63;;;12.00;99.90;;;;;;5090555;28;20035;-40
2023/05/12 02:12:26;;;;;;;42.05;31.17;;;12.00;99.90;;;;;;5090567;28;20106;-40
2023/05/12 02:14:52;;;;;;;44.00;31.95;;;12.10;99.90;;;;;;5091025;28;20402;-41
2023/05/12 02:17:17;;;;;;;48.92;31.17;;;12.00;99.90;;;;;;5091218;28;20036;-41
2023/05/12 02:19:43;;;;;;;38.28;27.67;;;12.00;99.90;;;;;;5091625;28;20107;-40
2023/05/12 02:22:08;;;;;;;42.58;30.08;;;11.90;99.90;;;;;;5090224;28;20024;-42
2023/05/12 02:24:35;;;;;;;45.97;28.77;;;11.90;99.90;;;;;;5090906;28;20028;-40
2023/05/12 02:27:00;;;;;;;34.70;26.10;;;11.90;99.90;;;;;;5090680;28;20028;-40
2023/05/12 02:29:25;;;;;;;44.58;29.85;;;11.80;99.90;;;;;;5090545;28;20405;-40
2023/05/12 02:31:51;;;;;;;42.67;31.45;;;11.70;99.90;;;;;;5088889;28;20035;-40
2023/05/12 02:34:17;;;;;;;44.97;31.40;;;11.60;99.90;;;;;;5088840;28;20031;-40
2023/05/12 02:36:42;;;;;;;45.90;32.20;;;11.60;99.90;;;;;;5088411;28;20016;-40
2023/05/12 02:39:08;;;;;;;44.50;29.70;;;11.60;99.90;;;;;;5090115;28;20020;-40
2023/05/12 02:41:33;;;;;;;44.42;31.23;;;11.60;99.90;;;;;;5089853;28;20026;-40
2023/05/12 02:43:59;;;;;;;42.05;29.08;;;11.50;99.90;;;;;;5090348;28;20039;-40
2023/05/12 02:46:24;;;;;;;37.78;28.42;;;11.50;99.90;;;;;;5090354;28;20020;-40
2023/05/12 02:48:50;;;;;;;49.72;32.53;;;11.40;99.90;;;;;;5090454;28;20068;-40
2023/05/12 02:51:15;;;;;;;50.22;33.00;;;11.40;99.90;;;;;;5089556;28;20028;-40
2023/05/12 02:53:41;;;;;;;39.03;28.45;;;11.40;99.90;;;;;;5089852;28;20103;-40
2023/05/12 02:56:07;;;;;;;39.00;27.52;;;11.30;99.90;;;;;;5090077;28;20032;-40
2023/05/12 02:58:33;;;;;;;40.25;28.25;;;11.30;99.90;;;;;;5089945;28;20024;-39
2023/05/12 03:00:58;;;;;;;34.78;26.10;;;11.20;99.90;;;;;;5089497;28;20081;-40
2023/05/12 03:03:24;;;;;;;37.05;27.33;;;11.20;99.90;;;;;;5089784;28;20024;-40
2023/05/12 03:05:51;;;;;;;34.78;25.35;;;11.10;99.90;;;;;;5089584;28;20073;-40
2023/05/12 03:08:16;;;;;;;33.85;26.02;;;11.00;99.90;;;;;;5089595;28;20021;-40
2023/05/12 03:10:42;;;;;;;31.70;24.15;;;11.00;99.90;;;;;;5090057;28;20024;-40
2023/05/12 03:13:08;;;;;;;34.80;24.65;;;10.90;99.90;;;;;;5089535;28;20213;-40
2023/05/12 03:15:35;;;;;;;35.25;24.70;;;10.90;99.90;;;;;;5089646;28;20522;-40
2023/05/12 03:18:01;;;;;;;33.47;24.08;;;10.70;99.90;;;;;;5089648;28;20051;-40
2023/05/12 03:20:26;;;;;;;33.05;24.52;;;10.70;99.90;;;;;;5089259;28;20457;-39
2023/05/12 03:22:52;;;;;;;35.88;25.73;;;10.80;99.90;;;;;;5088793;28;20133;-39
2023/05/12 03:25:17;;;;;;;31.77;24.17;;;10.80;99.90;;;;;;5089334;28;20020;-41
2023/05/12 03:27:43;;;;;;;40.50;27.63;;;10.80;99.90;;;;;;5089432;28;20047;-41
2023/05/12 03:30:09;;;;;;;41.90;28.17;;;10.80;99.90;;;;;;5089265;28;20035;-41
2023/05/12 03:32:37;;;;;;;34.60;25.60;;;10.80;99.90;;;;;;5089068;28;20028;-41
2023/05/12 03:35:04;;;;;;;41.42;26.73;;;10.80;99.90;;;;;;5089495;28;20024;-40
2023/05/12 03:37:29;;;;;;;36.55;26.58;;;10.80;99.90;;;;;;5088785;28;20449;-41
2023/05/12 03:39:55;;;;;;;36.25;24.67;;;10.80;99.90;;;;;;5089297;28;20097;-41
2023/05/12 03:42:20;;;;;;;44.28;27.02;;;10.80;99.90;;;;;;5087839;28;20145;-41
2023/05/12 03:44:46;;;;;;;36.03;26.77;;;10.80;99.90;;;;;;5087908;28;20038;-41
2023/05/12 03:47:12;;;;;;;36.38;27.02;;;10.80;99.90;;;;;;5082395;28;20052;-41
2023/05/12 03:49:37;;;;;;;32.42;24.35;;;10.80;99.90;;;;;;5068765;28;20017;-40
2023/05/12 03:52:03;;;;;;;33.65;25.33;;;10.90;99.90;;;;;;5066294;28;20061;-41
2023/05/12 03:54:29;;;;;;;38.35;27.27;;;10.90;99.90;;;;;;5068721;28;20024;-40
2023/05/12 03:56:55;;;;;;;37.50;26.08;;;10.90;99.90;;;;;;5068675;28;20025;-40
2023/05/12 03:59:20;;;;;;;36.00;25.08;;;10.90;99.90;;;;;;5068781;28;20035;-40
2023/05/12 04:01:46;;;;;;;33.58;24.02;;;10.90;99.90;;;;;;5068334;28;20020;-40
2023/05/12 04:04:11;;;;;;;33.38;24.05;;;11.00;99.90;;;;;;5068895;28;20028;-40
2023/05/12 04:06:37;;;;;;;32.53;22.35;;;10.90;99.90;;;;;;5068495;28;20021;-41
2023/05/12 04:09:02;;;;;;;32.75;24.00;;;11.00;99.90;;;;;;5068183;28;20104;-40
2023/05/12 04:11:28;;;;;;;34.20;23.20;;;11.00;99.90;;;;;;5067970;28;20020;-40
2023/05/12 04:13:54;;;;;;;29.67;22.92;;;11.00;99.90;;;;;;5068826;28;20345;-40
2023/05/12 04:16:19;;;;;;;28.77;22.02;;;11.00;99.90;;;;;;5069208;28;20066;-40
2023/05/12 04:18:45;;;;;;;29.45;22.17;;;11.10;99.90;;;;;;5068290;28;20055;-40
2023/05/12 04:21:10;;;;;;;29.35;21.45;;;11.10;99.90;;;;;;5067838;28;20441;-40
2023/05/12 04:23:36;;;;;;;28.42;20.77;;;11.10;99.90;;;;;;5068012;28;20025;-41
2023/05/12 04:26:04;;;;;;;34.08;25.05;;;11.10;99.90;;;;;;5068564;28;20086;-41
2023/05/12 04:28:30;;;;;;;33.50;24.65;;;11.10;99.90;;;;;;5050544;28;20024;-40
2023/05/12 04:31:00;;;;;;;27.60;20.10;;;11.10;99.90;;;;;;5067974;28;20046;-41
2023/05/12 04:33:25;;;;;;;29.15;21.52;;;11.10;99.90;;;;;;5068422;28;20028;-41
2023/05/12 04:35:55;;;;;;;26.63;19.73;;;11.20;99.90;;;;;;5067871;28;20035;-41
2023/05/12 04:38:21;;;;;;;20.93;18.07;;;11.20;99.90;;;;;;5042311;28;20021;-40
2023/05/12 04:40:47;;;;;;;31.15;22.48;;;11.30;99.90;;;;;;5067713;28;20263;-40
2023/05/12 04:43:12;;;;;;;22.52;18.52;;;11.30;99.90;;;;;;5049976;28;20352;-40
2023/05/12 04:45:38;;;;;;;23.45;18.35;;;11.30;99.90;;;;;;5068272;28;20575;-40
2023/05/12 04:48:03;;;;;;;25.90;20.02;;;11.30;99.90;;;;;;5080492;28;20036;-40
2023/05/12 04:50:29;;;;;;;22.10;18.27;;;11.30;99.90;;;;;;5067334;28;20517;-40
2023/05/12 04:52:55;;;;;;;25.10;18.27;;;11.30;99.90;;;;;;5086402;28;20413;-40
2023/05/12 04:55:20;;;;;;;23.00;18.73;;;11.30;99.90;;;;;;5088328;28;20059;-40
2023/05/12 04:57:46;;;;;;;22.52;18.67;;;11.30;99.90;;;;;;5088473;28;20048;-41
2023/05/12 05:00:12;;;;;;;24.17;18.92;;;11.40;99.90;;;;;;5091550;28;20036;-41
2023/05/12 05:02:38;;;;;;;23.58;17.70;;;11.50;99.90;;;;;;5090460;28;20463;-40
2023/05/12 05:05:03;;;;;;;21.48;18.45;;;11.50;99.90;;;;;;5092297;28;20118;-41
2023/05/12 05:07:29;;;;;;;23.95;18.38;;;11.50;99.90;;;;;;5092306;28;20024;-41
2023/05/12 05:09:54;;;;;;;23.38;18.92;;;11.60;99.90;;;;;;5092013;28;20100;-40
2023/05/12 05:12:20;;;;;;;21.45;18.17;;;11.70;99.90;;;;;;5091462;28;20036;-40
2023/05/12 05:14:46;;;;;;;25.50;19.40;;;11.70;99.90;;;;;;5091838;28;20034;-40
2023/05/12 05:17:11;;;;;;;19.67;17.52;;;11.80;99.90;;;;;;5092018;28;20024;-40
2023/05/12 05:19:37;;;;;;;19.30;17.15;;;11.80;99.90;;;;;;5091883;28;20375;-41
2023/05/12 05:22:03;;;;;;;22.58;17.45;;;11.70;99.90;;;;;;5091199;28;20020;-41
2023/05/12 05:24:29;;;;;;;22.45;17.45;;;11.80;99.90;;;;;;5092082;28;20024;-41
2023/05/12 05:26:54;;;;;;;27.73;20.45;;;11.80;99.90;;;;;;5091830;28;20039;-40
2023/05/12 05:29:20;;;;;;;24.48;18.55;;;11.90;99.90;;;;;;5091934;28;20091;-41
2023/05/12 05:31:45;;;;;;;23.27;16.83;;;11.80;99.90;;;;;;5091130;28;20452;-42
2023/05/12 05:34:11;;;;;;;23.50;18.05;;;11.80;99.90;;;;;;5087212;28;20078;-42
2023/05/12 05:36:36;;;;;;;25.83;18.35;;;11.90;99.90;;;;;;5081746;28;20033;-40
2023/05/12 05:39:02;;;;;;;17.98;15.98;;;11.90;99.90;;;;;;5082234;28;20042;-40
2023/05/12 05:41:28;;;;;;;19.55;16.58;;;12.00;99.90;;;;;;5088783;28;20032;-40
2023/05/12 05:43:53;;;;;;;23.85;17.38;;;12.10;99.90;;;;;;5091696;28;20023;-42
2023/05/12 05:46:19;;;;;;;23.73;20.13;;;12.10;99.90;;;;;;5084573;28;20470;-41
2023/05/12 05:48:44;;;;;;;23.90;17.33;;;12.20;99.90;;;;;;5080465;28;20024;-41
2023/05/12 05:51:10;;;;;;;21.40;16.67;;;12.20;99.90;;;;;;5083646;28;20078;-41
2023/05/12 05:53:36;;;;;;;17.70;15.55;;;12.20;99.90;;;;;;5085662;28;20028;-40
2023/05/12 05:56:01;;;;;;;21.75;15.73;;;12.30;99.90;;;;;;5090130;28;20036;-40
2023/05/12 05:58:27;;;;;;;18.15;15.98;;;12.40;99.90;;;;;;5091184;28;20032;-41
2023/05/12 06:00:52;;;;;;;18.35;15.52;;;12.40;99.90;;;;;;5084882;28;20028;-41
2023/05/12 06:03:18;;;;;;;18.40;15.35;;;12.40;99.90;;;;;;5089937;28;20028;-41
2023/05/12 06:05:44;;;;;;;22.63;15.20;;;12.40;99.90;;;;;;5091064;28;20070;-41
2023/05/12 06:08:12;;;;;;;16.65;14.27;;;12.50;99.90;;;;;;5091214;28;20020;-42
2023/05/12 06:10:37;;;;;;;17.75;14.75;;;12.50;99.90;;;;;;5090996;28;20542;-41
2023/05/12 06:13:03;;;;;;;20.35;16.92;;;12.50;99.90;;;;;;5090711;28;20108;-41
2023/05/12 06:15:29;;;;;;;20.23;17.38;;;12.80;99.90;;;;;;5090554;28;20085;-41
2023/05/12 06:17:54;;;;;;;24.35;18.30;;;12.80;99.90;;;;;;5091124;28;20032;-40
2023/05/12 06:20:22;;;;;;;22.15;16.73;;;12.90;99.90;;;;;;5091435;28;20024;-40
2023/05/12 06:22:47;;;;;;;20.77;16.38;;;13.00;99.90;;;;;;5087393;28;20381;-40
2023/05/12 06:25:13;;;;;;;21.38;16.48;;;13.00;99.90;;;;;;5082043;28;20017;-40
2023/05/12 06:27:39;;;;;;;18.67;16.35;;;13.00;99.90;;;;;;5081617;28;20121;-41
2023/05/12 06:30:05;;;;;;;18.23;15.48;;;13.00;99.90;;;;;;5091379;28;20524;-40
2023/05/12 06:32:30;;;;;;;16.73;14.40;;;13.10;99.90;;;;;;5097699;28;20334;-40
2023/05/12 06:34:56;;;;;;;19.10;15.73;;;13.20;99.90;;;;;;5090941;28;20047;-40
2023/05/12 06:37:21;;;;;;;17.17;15.32;;;13.40;99.90;;;;;;5103111;28;20035;-41
2023/05/12 06:39:47;;;;;;;24.17;17.40;;;13.50;99.90;;;;;;5104590;28;20035;-41
2023/05/12 06:42:12;;;;;;;20.67;15.20;;;13.60;99.90;;;;;;5099052;28;20031;-41
2023/05/12 06:44:38;;;;;;;17.10;14.27;;;13.50;99.90;;;;;;5099119;28;20020;-41
2023/05/12 06:47:04;;;;;;;13.82;12.43;;;13.70;99.90;;;;;;5100036;28;20054;-41
2023/05/12 06:49:30;;;;;;;14.35;12.90;;;13.90;99.90;;;;;;5098662;28;20099;-42
2023/05/12 06:51:55;;;;;;;14.82;13.20;;;14.20;99.90;;;;;;5095750;28;20008;-39
2023/05/12 06:54:21;;;;;;;16.05;12.82;;;14.40;99.90;;;;;;5097511;28;20027;-39
2023/05/12 06:56:46;;;;;;;16.25;12.90;;;14.60;99.90;;;;;;5095180;28;20066;-38
2023/05/12 06:59:12;;;;;;;17.23;12.40;;;14.80;99.90;;;;;;5099263;28;20030;-38
2023/05/12 07:01:37;;;;;;;14.40;11.00;;;15.00;99.90;;;;;;5096602;28;20024;-38
2023/05/12 07:04:03;;;;;;;13.57;11.57;;;15.20;99.90;;;;;;5088112;28;20051;-40
2023/05/12 07:06:29;;;;;;;13.02;10.68;;;15.30;99.90;;;;;;5090094;28;20042;-40
2023/05/12 07:08:54;;;;;;;12.57;10.85;;;15.50;99.90;;;;;;5090051;28;20045;-40
2023/05/12 07:11:21;;;;;;;15.55;10.38;;;15.70;99.90;;;;;;5089826;28;20016;-40
2023/05/12 07:13:47;;;;;;;13.88;10.27;;;15.90;99.90;;;;;;5088484;28;20032;-40
2023/05/12 07:16:13;;;;;;;14.40;11.05;;;16.00;99.90;;;;;;5089412;28;20374;-42
2023/05/12 07:18:39;;;;;;;13.18;9.85;;;16.20;99.90;;;;;;5089721;28;20567;-40
2023/05/12 07:21:05;;;;;;;14.10;10.48;;;16.30;99.90;;;;;;5088492;28;20111;-41
2023/05/12 07:23:31;;;;;;;12.38;9.68;;;16.50;99.90;;;;;;5089429;28;20027;-40
2023/05/12 07:25:56;;;;;;;10.18;8.68;;;16.70;99.90;;;;;;5089765;28;20017;-42
2023/05/12 07:28:22;;;;;;;13.10;10.30;;;16.70;99.90;;;;;;5089570;28;20473;-40
2023/05/12 07:30:47;;;;;;;16.48;9.63;;;17.00;99.90;;;;;;5088837;28;20066;-41
2023/05/12 07:33:13;;;;;;;11.35;8.95;;;17.30;99.90;;;;;;5089270;28;20063;-41
2023/05/12 07:35:38;;;;;;;10.27;8.55;;;17.30;99.90;;;;;;5089318;28;20028;-41
2023/05/12 07:38:04;;;;;;;15.38;8.02;;;17.40;99.90;;;;;;5088442;28;20032;-41
2023/05/12 07:40:29;;;;;;;14.13;8.63;;;17.50;99.90;;;;;;5089374;28;20020;-41
2023/05/12 07:42:55;;;;;;;11.18;8.65;;;17.60;99.90;;;;;;5095875;28;20036;-41
2023/05/12 07:45:24;;;;;;;11.02;7.65;;;17.80;99.90;;;;;;5094003;28;20243;-41
2023/05/12 07:47:50;;;;;;;11.40;8.10;;;18.00;99.90;;;;;;5097679;28;20016;-41
2023/05/12 07:50:17;;;;;;;10.93;8.15;;;18.10;99.90;;;;;;5091232;28;20024;-41
2023/05/12 07:52:49;;;;;;;14.55;8.18;;;18.10;99.90;;;;;;5088530;28;20035;-41
2023/05/12 07:55:15;;;;;;;10.18;7.63;;;18.10;99.90;;;;;;5089112;28;20024;-41
2023/05/12 07:57:41;;;;;;;11.23;7.97;;;18.30;99.90;;;;;;5087926;28;20024;-41
2023/05/12 08:00:08;;;;;;;11.85;7.82;;;18.30;99.90;;;;;;5089235;28;20020;-40
2023/05/12 08:02:35;;;;;;;11.95;7.50;;;18.40;99.90;;;;;;5088296;28;20539;-41
2023/05/12 08:05:01;;;;;;;10.90;7.57;;;18.50;99.90;;;;;;5077019;28;20623;-41
2023/05/12 08:07:26;;;;;;;9.40;7.50;;;18.50;99.90;;;;;;5076120;28;20032;-41
2023/05/12 08:09:54;;;;;;;15.07;7.75;;;18.50;99.90;;;;;;5087503;28;20024;-40
2023/05/12 08:12:19;;;;;;;10.30;6.95;;;18.40;99.90;;;;;;5086475;28;20031;-42
2023/05/12 08:14:45;;;;;;;12.77;7.05;;;18.40;99.90;;;;;;5086508;28;20031;-41
2023/05/12 08:17:11;;;;;;;8.73;6.68;;;18.40;99.90;;;;;;5086763;28;20481;-41
2023/05/12 08:19:36;;;;;;;11.73;6.78;;;18.40;99.90;;;;;;5086724;28;20028;-41
2023/05/12 08:22:02;;;;;;;12.75;6.95;;;18.40;99.90;;;;;;5085990;28;20031;-42
2023/05/12 08:24:27;;;;;;;11.10;6.53;;;18.50;99.90;;;;;;5087100;28;20434;-40
2023/05/12 08:26:53;;;;;;;10.88;6.53;;;18.60;99.90;;;;;;5088404;28;20381;-42
2023/05/12 08:29:18;;;;;;;8.00;6.43;;;18.90;99.90;;;;;;5088350;28;20024;-42
2023/05/12 08:31:44;;;;;;;12.57;6.88;;;19.20;99.90;;;;;;5086470;28;20021;-43
2023/05/12 08:34:10;;;;;;;8.75;6.03;;;19.90;99.90;;;;;;5089948;28;20058;-46
2023/05/12 08:36:35;;;;;;;9.13;5.88;;;20.20;99.90;;;;;;5092354;28;20055;-43
2023/05/12 08:39:01;;;;;;;9.18;5.93;;;20.90;99.10;;;;;;5092845;28;20356;-44
2023/05/12 08:41:44;;;;;;;7.80;6.18;;;21.30;96.80;;;;;;5092932;28;20028;-42
2023/05/12 08:44:11;;;;;;;10.75;5.70;;;21.80;96.40;;;;;;5093181;28;20385;-42
2023/05/12 08:46:37;;;;;;;11.15;5.53;;;22.60;93.90;;;;;;5092776;28;20016;-42
2023/05/12 08:49:03;;;;;;;9.30;5.72;;;23.40;91.60;;;;;;5093298;28;20020;-41
2023/05/12 08:51:31;;;;;;;7.47;5.80;;;24.10;86.80;;;;;;5090826;28;20220;-42
2023/05/12 08:53:57;;;;;;;9.25;4.90;;;25.30;84.10;;;;;;5090959;28;20036;-42
2023/05/12 08:56:23;;;;;;;10.23;4.40;;;26.50;79.40;;;;;;5091228;28;20024;-42
2023/05/12 08:58:50;;;;;;;5.95;4.40;;;27.50;77.20;;;;;;5089715;28;20036;-42
2023/05/12 09:01:16;;;;;;;11.05;4.88;;;28.70;74.20;;;;;;5090548;28;20053;-41
2023/05/12 09:03:42;;;;;;;5.57;4.50;;;29.20;67.30;;;;;;5089865;28;20039;-41
2023/05/12 09:06:10;;;;;;;8.32;4.07;;;29.80;67.30;;;;;;5089679;28;20024;-42
2023/05/12 09:08:36;;;;;;;7.63;4.03;;;31.20;63.90;;;;;;5092501;28;20046;-42
2023/05/12 09:11:02;;;;;;;7.28;4.43;;;32.30;59.10;;;;;;5092181;28;20059;-41
2023/05/12 09:13:48;;;;;;;4.72;3.85;;;32.50;57.10;;;;;;5092265;28;20032;-42
2023/05/12 09:16:16;;;;;;;6.38;3.97;;;32.80;57.90;;;;;;5091915;28;20330;-44
2023/05/12 09:18:51;;;;;;;5.07;3.28;;;34.20;52.90;;;;;;5092064;28;20024;-45
2023/05/12 09:21:17;;;;;;;8.80;3.88;;;34.10;52.00;;;;;;5090180;28;20024;-42
2023/05/12 09:24:04;;;;;;;9.85;4.35;;;34.30;52.20;;;;;;5092276;28;20028;-43
2023/05/12 09:26:31;;;;;;;8.73;4.45;;;34.50;52.50;;;;;;5092111;28;20472;-41
2023/05/12 09:29:06;;;;;;;5.43;3.67;;;33.90;50.20;;;;;;5092116;28;20362;-41
2023/05/12 09:31:31;;;;;;;5.72;3.50;;;34.50;51.90;;;;;;5091621;28;20020;-42
2023/05/12 09:33:57;;;;;;;5.22;3.45;;;34.40;52.50;;;;;;5090906;28;20031;-44
2023/05/12 09:36:24;;;;;;;5.97;3.45;;;35.00;51.70;;;;;;5091652;28;20032;-43
2023/05/12 09:39:03;;;;;;;3.47;3.17;;;35.50;45.40;;;;;;5091511;28;20024;-41
2023/05/12 09:41:29;;;;;;;10.10;3.83;;;35.80;46.40;;;;;;5091320;28;20024;-42
2023/05/12 09:43:55;;;;;;;7.28;3.33;;;35.80;46.00;;;;;;5091400;28;20481;-42
2023/05/12 09:46:21;;;;;;;8.32;3.35;;;35.20;47.30;;;;;;5089607;28;20031;-41
2023/05/12 09:48:47;;;;;;;6.00;4.22;;;35.20;47.60;;;;;;5089769;28;20028;-44
2023/05/12 09:51:19;;;;;;;10.73;4.13;;;35.50;45.90;;;;;;5090296;28;20020;-42
2023/05/12 09:53:45;;;;;;;10.38;3.67;;;35.50;46.20;;;;;;5091555;28;20056;-41
2023/05/12 09:56:12;;;;;;;7.72;3.97;;;36.70;43.50;;;;;;5091039;28;20023;-42
2023/05/12 09:58:42;;;;;;;6.32;3.35;;;35.80;46.40;;;;;;5091103;28;20024;-42
2023/05/12 10:01:19;;;;;;;6.93;2.78;;;36.20;44.80;;;;;;5091014;28;20457;-42
2023/05/12 10:03:47;;;;;;;6.53;3.20;;;36.60;45.80;;;;;;5091150;28;20043;-41
2023/05/12 10:06:21;;;;;;;8.43;3.42;;;36.30;46.00;;;;;;5090991;28;20024;-41
2023/05/12 10:09:10;;;;;;;5.45;3.40;;;35.80;47.60;;;;;;5090950;28;20027;-42
2023/05/12 10:11:36;;;;;;;4.20;3.80;;;35.60;45.70;;;;;;5090773;28;20028;-40
2023/05/12 10:14:02;;;;;;;5.38;3.50;;;34.20;45.30;;;;;;5089800;28;20269;-40
2023/05/12 10:16:28;;;;;;;7.78;3.95;;;32.40;47.50;;;;;;5091621;28;20099;-41
2023/05/12 10:18:54;;;;;;;5.20;4.13;;;32.60;48.20;;;;;;5091030;28;20496;-41
2023/05/12 10:21:20;;;;;;;6.75;4.00;;;33.50;46.90;;;;;;5090112;28;20098;-41
2023/05/12 10:23:47;;;;;;;3.67;3.00;;;33.90;45.80;;;;;;5090882;28;20165;-40
2023/05/12 10:26:13;;;;;;;6.65;3.08;;;34.60;42.80;;;;;;5091051;28;20020;-42
2023/05/12 10:28:39;;;;;;;5.05;3.47;;;34.50;45.00;;;;;;5090737;28;20280;-41
2023/05/12 10:31:06;;;;;;;5.35;3.15;;;33.90;41.40;;;;;;5090276;28;20020;-41
2023/05/12 10:33:32;;;;;;;7.25;3.30;;;33.80;42.00;;;;;;5090932;28;20030;-41
2023/05/12 10:35:58;;;;;;;4.45;3.28;;;33.80;43.30;;;;;;5089648;28;20020;-42
2023/05/12 10:38:24;;;;;;;3.47;3.17;;;34.30;44.00;;;;;;5090588;28;20446;-46
2023/05/12 10:40:57;;;;;;;6.40;3.13;;;35.00;43.40;;;;;;5090645;28;20020;-46
2023/05/12 10:43:44;;;;;;;7.95;3.33;;;35.40;39.60;;;;;;5090616;28;20024;-46
2023/05/12 10:46:16;;;;;;;6.72;3.47;;;35.20;38.70;;;;;;5089265;28;20028;-46
2023/05/12 10:49:11;;;;;;;4.22;2.70;;;35.30;42.00;;;;;;5090266;28;20036;-48
2023/05/12 10:51:43;;;;;;;4.35;2.90;;;35.70;39.60;;;;;;5089851;28;20020;-45
2023/05/12 10:54:11;;;;;;;3.10;2.80;;;35.80;41.10;;;;;;5089035;28;20024;-45
2023/05/12 10:56:37;;;;;;;5.60;2.97;;;34.80;40.80;;;;;;5089623;28;20024;-45
2023/05/12 10:59:20;;;;;;;7.47;3.17;;;33.70;40.50;;;;;;5090402;28;20541;-45
2023/05/12 11:01:59;;;;;;;6.53;3.30;;;32.30;41.10;;;;;;5090156;28;20028;-45
2023/05/12 11:04:41;;;;;;;5.13;3.03;;;31.90;41.50;;;;;;5090816;28;20028;-45
2023/05/12 11:07:11;;;;;;;7.05;3.22;;;32.40;44.70;;;;;;5089994;28;20028;-45
2023/05/12 11:09:41;;;;;;;11.30;2.88;;;33.10;41.70;;;;;;5090748;28;20012;-47
2023/05/12 11:12:08;;;;;;;4.20;2.80;;;34.30;41.00;;;;;;5089726;28;20457;-46
2023/05/12 11:14:38;;;;;;;5.68;3.15;;;33.40;41.20;;;;;;5089989;28;20035;-45
2023/05/12 11:17:04;;;;;;;4.35;2.85;;;33.00;40.00;;;;;;5090113;28;20154;-48
2023/05/12 11:19:30;;;;;;;5.05;2.80;;;33.40;41.60;;;;;;5089895;28;20103;-47
2023/05/12 11:21:56;;;;;;;4.30;2.30;;;34.50;38.80;;;;;;5089390;28;20315;-45
2023/05/12 11:24:21;;;;;;;6.80;2.88;;;35.20;40.00;;;;;;5088399;28;20028;-46
2023/05/12 11:26:50;;;;;;;3.97;2.80;;;35.20;40.10;;;;;;5089704;28;20020;-48
2023/05/12 11:29:19;;;;;;;4.07;2.70;;;35.10;41.10;;;;;;5089883;28;20016;-47
2023/05/12 11:31:50;;;;;;;5.43;2.38;;;36.10;38.70;;;;;;5089225;28;20036;-49
2023/05/12 11:34:23;;;;;;;5.45;2.38;;;35.10;39.10;;;;;;5088355;28;20026;-46
2023/05/12 11:36:51;;;;;;;3.80;2.60;;;35.50;37.20;;;;;;5089116;28;20028;-46
2023/05/12 11:39:22;;;;;;;2.95;2.60;;;35.40;40.20;;;;;;5089426;28;20028;-47
2023/05/12 11:41:49;;;;;;;4.10;2.55;;;34.90;39.70;;;;;;5087675;28;20024;-47
2023/05/12 11:44:22;;;;;;;4.13;2.70;;;34.50;39.50;;;;;;5089572;28;20452;-46
2023/05/12 11:46:59;;;;;;;4.50;2.60;;;34.20;38.60;;;;;;5087830;28;20492;-47
2023/05/12 11:49:26;;;;;;;4.28;2.65;;;34.80;37.50;;;;;;5089474;28;20404;-45
2023/05/12 11:51:53;;;;;;;3.00;2.67;;;34.80;41.20;;;;;;5088449;28;20035;-47
2023/05/12 11:54:20;;;;;;;6.38;2.85;;;35.00;38.20;;;;;;5088013;28;20410;-46
2023/05/12 11:56:52;;;;;;;11.18;3.38;;;34.80;40.00;;;;;;5086803;28;20537;-46
2023/05/12 11:59:34;;;;;;;4.78;3.05;;;34.40;39.00;;;;;;5089343;28;20023;-46
2023/05/12 12:02:02;;;;;;;5.72;3.30;;;33.90;38.10;;;;;;5088746;28;20099;-47
2023/05/12 12:04:35;;;;;;;4.80;3.60;;;33.40;40.20;;;;;;5089473;28;20469;-45
2023/05/12 12:07:02;;;;;;;5.93;2.70;;;32.90;39.20;;;;;;5088553;28;20035;-45
2023/05/12 12:09:41;;;;;;;4.05;2.58;;;32.80;39.80;;;;;;5088718;28;20027;-44
2023/05/12 12:12:09;;;;;;;3.10;2.80;;;32.20;39.30;;;;;;5087454;28;20020;-45
2023/05/12 12:14:36;;;;;;;8.18;2.92;;;31.70;39.70;;;;;;5088958;28;20038;-44
2023/05/12 12:17:03;;;;;;;3.38;2.85;;;31.20;41.50;;;;;;5089124;28;20024;-45
2023/05/12 12:19:29;;;;;;;4.90;3.30;;;30.80;41.50;;;;;;5088778;28;20103;-45
2023/05/12 12:21:56;;;;;;;7.43;3.03;;;30.40;43.40;;;;;;5086656;28;20107;-46
2023/05/12 12:24:21;;;;;;;4.03;3.20;;;30.40;41.50;;;;;;5087305;28;20413;-46
2023/05/12 12:26:47;;;;;;;5.57;3.28;;;29.90;41.20;;;;;;5089023;28;20070;-44
2023/05/12 12:29:13;;;;;;;3.58;3.10;;;29.20;42.30;;;;;;5089080;28;20032;-47
2023/05/12 12:31:38;;;;;;;7.25;3.42;;;28.40;44.60;;;;;;5088539;28;20028;-47